Terminal Aerodrome Forecast
Issued by NWS

Home | Current Version | Previous Version | Text Only | Print | Product List | Glossary Off
Versions: 1 2 3 4 5 6 7 8 9 10 11 12 13 14

811
FTUS43 KOAX 270520
TAFCDR
TAF
KCDR 270520Z 2706/2806 17007KT P6SM VCTS SCT025 BKN040CB
     FM270700 19007KT P6SM SCT040
     FM271200 24010KT P6SM SCT250=

USA.gov is the U.S. government's official web portal to all federal, state and local government web resources and services.